Time;durP1;ratioP1;P1;durP2;ratioP2;P2;SDS_P1;SDS_P2;PMS_P1;PMS_P2;Temp;Humidity;BMP_temperature;BMP_pressure;BME280_temperature;BME280_humidity;BME280_pressure;Samples;Min_cycle;Max_cycle;Signal;HPM_P1;HPM_P2
2023/09/06 00:00:43;;;;;;;6.07;5.47;;;22.30;73.20;;;;;;5009672;28;20063;-67
2023/09/06 00:03:10;;;;;;;6.45;5.85;;;22.30;73.30;;;;;;5006995;28;20097;-68
2023/09/06 00:05:41;;;;;;;7.75;6.28;;;22.20;73.20;;;;;;5009513;28;20021;-67
2023/09/06 00:08:16;;;;;;;6.13;5.45;;;22.20;73.20;;;;;;5019777;28;20065;-66
2023/09/06 00:10:45;;;;;;;5.85;5.35;;;22.20;73.90;;;;;;5016662;28;20108;-67
2023/09/06 00:13:13;;;;;;;6.30;5.78;;;22.10;73.10;;;;;;5015297;28;20038;-66
2023/09/06 00:15:39;;;;;;;8.23;5.70;;;22.20;73.30;;;;;;5006016;28;20046;-66
2023/09/06 00:18:06;;;;;;;6.30;5.80;;;22.10;73.20;;;;;;5005471;28;20029;-67
2023/09/06 00:20:36;;;;;;;6.22;5.60;;;22.10;73.20;;;;;;5017656;28;20033;-66
2023/09/06 00:23:09;;;;;;;7.97;5.70;;;22.10;73.30;;;;;;5008769;28;20062;-68
2023/09/06 00:25:35;;;;;;;7.90;5.50;;;22.00;73.20;;;;;;5008901;28;20402;-67
2023/09/06 00:28:04;;;;;;;6.07;5.53;;;22.00;73.30;;;;;;5014165;28;20049;-66
2023/09/06 00:30:30;;;;;;;6.50;5.75;;;21.90;73.10;;;;;;5011213;28;20121;-67
2023/09/06 00:32:59;;;;;;;5.95;5.45;;;21.90;73.10;;;;;;5013301;28;20049;-67
2023/09/06 00:35:26;;;;;;;6.13;5.60;;;21.90;73.20;;;;;;5009193;28;20411;-67
2023/09/06 00:37:53;;;;;;;6.15;5.60;;;21.90;73.30;;;;;;5009537;28;20032;-67
2023/09/06 00:40:21;;;;;;;5.78;5.28;;;21.80;73.20;;;;;;5017997;28;20042;-67
2023/09/06 00:42:51;;;;;;;5.93;5.30;;;21.80;73.20;;;;;;5016881;28;20092;-67
2023/09/06 00:45:26;;;;;;;6.50;5.72;;;21.70;73.20;;;;;;5010732;28;20495;-68
2023/09/06 00:47:53;;;;;;;8.85;5.60;;;21.70;73.80;;;;;;5007835;28;20033;-67
2023/09/06 00:50:20;;;;;;;5.80;5.03;;;21.70;73.30;;;;;;5008394;28;20045;-68
2023/09/06 00:52:48;;;;;;;7.15;6.00;;;21.70;73.40;;;;;;5007886;28;20045;-66
2023/09/06 00:55:16;;;;;;;6.07;5.57;;;21.60;73.20;;;;;;5018970;28;20043;-67
2023/09/06 00:57:42;;;;;;;6.10;5.60;;;21.60;73.30;;;;;;5009770;28;20045;-67
2023/09/06 01:00:19;;;;;;;5.45;4.95;;;21.60;73.40;;;;;;5011350;28;20044;-66
2023/09/06 01:02:47;;;;;;;6.28;5.65;;;21.60;73.40;;;;;;5009806;28;20381;-66
2023/09/06 01:05:15;;;;;;;6.05;5.53;;;21.60;73.40;;;;;;5007058;28;20038;-67
2023/09/06 01:07:48;;;;;;;7.18;6.47;;;21.50;73.30;;;;;;5012712;28;20034;-67
2023/09/06 01:10:14;;;;;;;6.38;5.78;;;21.50;73.30;;;;;;5007322;28;20044;-66
2023/09/06 01:12:40;;;;;;;5.97;5.53;;;21.50;73.40;;;;;;5015194;28;20029;-66
2023/09/06 01:15:07;;;;;;;6.80;6.10;;;21.40;73.20;;;;;;5007409;28;20196;-66
2023/09/06 01:17:37;;;;;;;5.82;5.32;;;21.40;73.30;;;;;;5004587;28;20038;-66
2023/09/06 01:20:17;;;;;;;5.80;5.30;;;21.40;73.30;;;;;;5005441;28;20058;-66
2023/09/06 01:22:51;;;;;;;6.85;6.25;;;21.40;73.40;;;;;;5007533;28;20044;-66
2023/09/06 01:25:17;;;;;;;6.30;5.45;;;21.30;73.20;;;;;;5009392;28;20041;-67
2023/09/06 01:27:45;;;;;;;7.05;6.15;;;21.30;73.30;;;;;;5005114;28;20272;-66
2023/09/06 01:30:11;;;;;;;9.20;6.30;;;21.30;73.30;;;;;;5006489;28;20044;-66
2023/09/06 01:32:37;;;;;;;7.47;6.70;;;21.20;73.20;;;;;;5005630;28;20026;-66
2023/09/06 01:35:06;;;;;;;7.75;6.20;;;21.30;73.50;;;;;;5026252;28;20021;-67
2023/09/06 01:37:35;;;;;;;6.75;6.15;;;21.20;73.30;;;;;;5020519;28;20036;-67
2023/09/06 01:40:00;;;;;;;6.65;6.15;;;21.20;73.30;;;;;;5015525;28;20057;-66
2023/09/06 01:42:27;;;;;;;6.15;5.55;;;21.20;73.40;;;;;;5017223;28;20280;-66
2023/09/06 01:44:53;;;;;;;8.23;6.57;;;21.20;73.60;;;;;;5010320;28;20627;-66
2023/09/06 01:47:19;;;;;;;6.25;5.70;;;21.20;73.50;;;;;;5000292;28;20038;-66
2023/09/06 01:49:46;;;;;;;7.28;6.50;;;21.10;73.30;;;;;;5014036;28;20052;-67
2023/09/06 01:52:12;;;;;;;7.03;6.45;;;21.10;73.40;;;;;;5005835;28;20054;-68
2023/09/06 01:54:39;;;;;;;11.13;6.82;;;21.10;73.50;;;;;;5012877;28;20033;-68
2023/09/06 01:57:06;;;;;;;6.65;5.95;;;21.10;73.50;;;;;;5012486;28;20080;-70
2023/09/06 01:59:33;;;;;;;7.57;6.13;;;21.10;73.60;;;;;;5019686;28;20049;-68
2023/09/06 02:01:58;;;;;;;8.50;7.10;;;21.10;73.60;;;;;;5010767;28;20025;-67
2023/09/06 02:04:24;;;;;;;8.25;6.97;;;21.00;73.50;;;;;;5018129;28;20516;-67
2023/09/06 02:06:50;;;;;;;7.32;6.65;;;21.00;73.60;;;;;;5009711;28;20034;-66
2023/09/06 02:09:17;;;;;;;7.65;6.95;;;20.90;73.40;;;;;;5017178;28;20208;-68
2023/09/06 02:11:43;;;;;;;6.95;6.35;;;20.90;73.50;;;;;;5013764;28;20060;-66
2023/09/06 02:14:09;;;;;;;7.13;6.43;;;20.90;73.50;;;;;;5013653;28;20530;-67
2023/09/06 02:16:35;;;;;;;8.55;7.20;;;20.90;73.60;;;;;;5015212;28;20116;-67
2023/09/06 02:19:01;;;;;;;7.90;7.20;;;20.90;73.70;;;;;;5010763;28;20038;-67
2023/09/06 02:21:28;;;;;;;7.30;6.70;;;20.80;73.50;;;;;;5013764;28;20519;-67
2023/09/06 02:23:56;;;;;;;7.53;6.68;;;20.90;73.70;;;;;;5020391;28;20485;-69
2023/09/06 02:26:22;;;;;;;8.95;8.07;;;20.80;73.60;;;;;;5012354;28;20080;-66
2023/09/06 02:28:50;;;;;;;8.43;7.25;;;20.80;73.70;;;;;;5014018;28;20064;-67
2023/09/06 02:31:16;;;;;;;7.47;6.68;;;20.80;73.70;;;;;;5009238;28;20490;-68
2023/09/06 02:33:44;;;;;;;8.70;6.88;;;20.80;73.70;;;;;;5021935;28;20029;-68
2023/09/06 02:36:09;;;;;;;8.35;7.53;;;20.80;73.80;;;;;;5007715;28;20036;-66
2023/09/06 02:38:35;;;;;;;6.55;5.95;;;20.70;73.70;;;;;;5017132;28;20030;-68
2023/09/06 02:41:02;;;;;;;8.38;7.13;;;20.70;73.80;;;;;;5014086;28;20072;-66
2023/09/06 02:43:28;;;;;;;7.15;6.45;;;20.70;73.90;;;;;;5017530;28;20490;-67
2023/09/06 02:45:55;;;;;;;8.65;7.55;;;20.70;73.90;;;;;;5015965;28;20076;-67
2023/09/06 02:48:21;;;;;;;7.97;7.18;;;20.70;73.90;;;;;;5021139;28;20057;-67
2023/09/06 02:50:47;;;;;;;8.57;7.20;;;20.70;74.00;;;;;;5009417;28;20272;-66
2023/09/06 02:53:20;;;;;;;8.95;7.65;;;20.70;74.00;;;;;;5009003;28;20370;-68
2023/09/06 02:55:51;;;;;;;8.02;7.22;;;20.60;73.80;;;;;;5016991;28;20033;-67
2023/09/06 02:58:23;;;;;;;7.75;7.00;;;20.60;73.80;;;;;;5019057;28;20386;-67
2023/09/06 03:00:55;;;;;;;8.65;7.85;;;20.60;73.90;;;;;;5008824;28;20037;-66
2023/09/06 03:03:22;;;;;;;8.88;7.30;;;20.60;73.90;;;;;;5012125;28;20490;-67
2023/09/06 03:05:48;;;;;;;8.00;7.20;;;20.50;73.70;;;;;;5009187;28;20030;-67
2023/09/06 03:08:16;;;;;;;8.43;7.43;;;20.50;73.80;;;;;;5012119;28;20245;-66
2023/09/06 03:10:46;;;;;;;9.13;7.78;;;20.50;73.80;;;;;;5008159;28;20480;-68
2023/09/06 03:13:15;;;;;;;8.30;7.50;;;20.50;73.80;;;;;;5013707;28;20044;-68
2023/09/06 03:15:43;;;;;;;7.65;7.05;;;20.50;73.90;;;;;;5009485;28;20416;-67
2023/09/06 03:18:10;;;;;;;8.38;7.40;;;20.50;74.40;;;;;;5006656;28;20038;-67
2023/09/06 03:20:43;;;;;;;7.68;6.97;;;20.50;74.00;;;;;;5018701;28;20036;-68
2023/09/06 03:23:17;;;;;;;8.10;7.28;;;20.40;73.80;;;;;;4994833;28;20272;-66
2023/09/06 03:25:53;;;;;;;7.55;6.85;;;20.40;73.80;;;;;;5029701;28;20501;-67
2023/09/06 03:28:21;;;;;;;9.23;7.78;;;20.40;73.90;;;;;;5011019;28;20083;-67
2023/09/06 03:30:51;;;;;;;7.68;6.97;;;20.40;73.90;;;;;;5012544;28;20040;-68
2023/09/06 03:33:18;;;;;;;8.05;7.22;;;20.40;74.00;;;;;;5011536;28;20513;-67
2023/09/06 03:35:46;;;;;;;7.97;7.18;;;20.40;74.00;;;;;;5009791;28;20046;-66
2023/09/06 03:38:15;;;;;;;7.28;6.68;;;20.30;73.80;;;;;;5001943;28;20072;-66
2023/09/06 03:40:42;;;;;;;8.00;7.25;;;20.30;73.90;;;;;;5015066;28;20046;-65
2023/09/06 03:43:14;;;;;;;8.60;7.63;;;20.30;73.90;;;;;;5014475;28;20124;-67
2023/09/06 03:45:44;;;;;;;6.93;6.32;;;20.30;73.90;;;;;;5016426;28;20034;-66
2023/09/06 03:48:11;;;;;;;7.68;6.70;;;20.20;73.80;;;;;;5013412;28;20057;-66
2023/09/06 03:50:37;;;;;;;8.27;7.57;;;20.30;73.90;;;;;;5013762;28;20050;-66
2023/09/06 03:53:04;;;;;;;7.00;6.40;;;20.20;73.80;;;;;;5009625;28;20528;-66
2023/09/06 03:55:34;;;;;;;7.57;6.82;;;20.20;73.80;;;;;;5009114;28;20028;-66
2023/09/06 03:58:04;;;;;;;7.10;6.40;;;20.20;73.80;;;;;;5010464;28;20030;-68
2023/09/06 04:00:31;;;;;;;7.78;6.95;;;20.20;73.90;;;;;;5007891;28;20030;-67
2023/09/06 04:03:10;;;;;;;7.88;7.28;;;20.20;73.90;;;;;;5008557;28;20053;-67
2023/09/06 04:05:37;;;;;;;8.43;7.57;;;20.20;73.90;;;;;;5017454;28;20064;-66
2023/09/06 04:08:06;;;;;;;8.07;7.18;;;20.10;73.80;;;;;;5011309;28;20061;-66
2023/09/06 04:10:36;;;;;;;8.15;7.38;;;20.10;73.80;;;;;;5017234;28;20052;-67
2023/09/06 04:13:08;;;;;;;8.10;7.30;;;20.10;73.90;;;;;;5012336;28;20108;-66
2023/09/06 04:15:35;;;;;;;8.13;7.32;;;20.10;73.90;;;;;;5009374;28;20037;-66
2023/09/06 04:18:05;;;;;;;8.25;6.95;;;20.10;74.00;;;;;;5009527;28;20030;-66
2023/09/06 04:20:36;;;;;;;8.25;7.50;;;20.00;73.90;;;;;;5007995;28;20048;-66
2023/09/06 04:23:07;;;;;;;7.90;7.25;;;20.10;74.10;;;;;;5007337;28;20034;-67
2023/09/06 04:25:44;;;;;;;7.97;7.22;;;20.00;74.00;;;;;;4996048;28;20041;-67
2023/09/06 04:28:20;;;;;;;7.68;6.97;;;20.00;74.00;;;;;;5011789;28;20108;-67
2023/09/06 04:30:47;;;;;;;8.80;7.93;;;20.00;74.00;;;;;;5008348;28;20400;-67
2023/09/06 04:33:16;;;;;;;8.68;7.88;;;20.00;74.00;;;;;;5011366;28;20030;-66
2023/09/06 04:35:49;;;;;;;9.63;8.73;;;20.00;74.10;;;;;;5009940;28;20037;-66
2023/09/06 04:38:20;;;;;;;9.35;8.35;;;19.90;73.90;;;;;;5009566;28;20042;-67
2023/09/06 04:40:51;;;;;;;9.32;8.43;;;20.00;74.20;;;;;;5011415;28;20048;-66
2023/09/06 04:43:19;;;;;;;10.60;8.15;;;19.90;74.10;;;;;;5010602;28;20157;-66
2023/09/06 04:45:47;;;;;;;9.05;8.32;;;19.90;74.10;;;;;;5012960;28;20033;-66
2023/09/06 04:48:17;;;;;;;8.80;7.95;;;19.90;74.10;;;;;;5022099;28;20080;-67
2023/09/06 04:50:48;;;;;;;8.48;7.78;;;19.90;74.20;;;;;;5016324;28;20049;-67
2023/09/06 04:53:19;;;;;;;9.43;8.55;;;19.90;74.20;;;;;;5014926;28;20029;-66
2023/09/06 04:55:49;;;;;;;8.85;8.05;;;19.90;74.20;;;;;;5020888;28;20505;-66
2023/09/06 04:58:19;;;;;;;8.93;8.00;;;19.90;74.20;;;;;;5022459;28;20033;-66
2023/09/06 05:00:47;;;;;;;8.38;7.68;;;19.80;74.10;;;;;;5019638;28;20057;-67
2023/09/06 05:03:18;;;;;;;9.25;8.02;;;19.80;74.20;;;;;;5002420;28;20029;-67
2023/09/06 05:05:48;;;;;;;8.50;7.80;;;19.80;74.20;;;;;;5017933;28;20108;-67
2023/09/06 05:08:16;;;;;;;10.88;9.77;;;19.80;74.20;;;;;;5009615;28;20029;-67
2023/09/06 05:10:42;;;;;;;9.48;8.57;;;19.80;74.30;;;;;;5016157;28;20048;-67
2023/09/06 05:13:11;;;;;;;11.25;7.85;;;19.80;74.30;;;;;;5010893;28;20047;-66
2023/09/06 05:15:39;;;;;;;8.52;7.75;;;19.70;74.10;;;;;;5018546;28;20033;-68
2023/09/06 05:18:08;;;;;;;7.85;7.20;;;19.70;74.70;;;;;;5016595;28;20029;-68
2023/09/06 05:20:37;;;;;;;8.32;7.63;;;19.70;74.10;;;;;;5019416;28;20111;-67
2023/09/06 05:23:14;;;;;;;8.00;7.38;;;19.70;74.20;;;;;;4999859;28;20038;-67
2023/09/06 05:25:42;;;;;;;8.80;7.65;;;19.70;74.20;;;;;;5010780;28;20113;-68
2023/09/06 05:28:14;;;;;;;7.50;6.88;;;19.70;74.20;;;;;;5015560;28;20124;-68
2023/09/06 05:30:46;;;;;;;8.43;7.57;;;19.70;74.20;;;;;;5016872;28;20041;-67
2023/09/06 05:33:15;;;;;;;9.13;8.32;;;19.70;74.20;;;;;;5007806;28;20031;-68
2023/09/06 05:35:43;;;;;;;8.30;7.55;;;19.70;74.20;;;;;;5017760;28;20045;-67
2023/09/06 05:38:10;;;;;;;8.23;7.43;;;19.60;74.10;;;;;;5017058;28;20437;-68
2023/09/06 05:40:41;;;;;;;8.80;7.90;;;19.60;74.20;;;;;;5018366;28;20037;-67
2023/09/06 05:43:09;;;;;;;8.20;7.45;;;19.60;74.20;;;;;;5013340;28;20473;-67
2023/09/06 05:45:37;;;;;;;8.10;7.40;;;19.60;74.20;;;;;;5017298;28;20124;-67
2023/09/06 05:48:03;;;;;;;8.90;8.18;;;19.60;74.20;;;;;;5012785;28;20424;-67
2023/09/06 05:50:32;;;;;;;9.93;8.95;;;19.60;74.20;;;;;;5017325;28;20555;-67
2023/09/06 05:52:58;;;;;;;8.32;7.40;;;19.60;74.20;;;;;;5019827;28;20038;-67
2023/09/06 05:55:25;;;;;;;9.02;8.15;;;19.60;74.20;;;;;;5013465;28;20811;-67
2023/09/06 05:57:53;;;;;;;8.63;7.82;;;19.60;74.20;;;;;;5012698;28;20415;-67
2023/09/06 06:00:21;;;;;;;8.20;7.50;;;19.60;74.20;;;;;;5005100;28;20375;-68
2023/09/06 06:02:55;;;;;;;8.98;7.72;;;19.60;74.20;;;;;;5012587;28;20037;-66
2023/09/06 06:05:21;;;;;;;8.70;7.80;;;19.60;74.20;;;;;;5015217;28;20124;-67
2023/09/06 06:07:47;;;;;;;8.82;8.00;;;19.60;74.20;;;;;;5012465;28;20478;-66
2023/09/06 06:10:14;;;;;;;9.23;8.43;;;19.60;74.20;;;;;;4999283;28;20033;-67
2023/09/06 06:12:41;;;;;;;8.73;7.93;;;19.60;74.20;;;;;;5015334;28;20044;-66
2023/09/06 06:15:11;;;;;;;9.30;8.40;;;19.70;74.30;;;;;;5012316;28;20064;-67
2023/09/06 06:17:38;;;;;;;9.00;8.18;;;19.70;74.40;;;;;;5009129;28;20025;-66
2023/09/06 06:20:06;;;;;;;8.50;7.38;;;19.70;74.30;;;;;;5012332;28;20061;-67
2023/09/06 06:22:39;;;;;;;10.30;8.68;;;19.70;74.40;;;;;;5008378;28;20112;-67
2023/09/06 06:25:07;;;;;;;9.27;8.38;;;19.70;74.30;;;;;;5014921;28;20247;-67
2023/09/06 06:27:33;;;;;;;9.73;8.73;;;19.80;74.50;;;;;;5007162;28;20232;-67
2023/09/06 06:30:00;;;;;;;9.35;7.68;;;19.80;74.40;;;;;;5007605;28;20038;-67
2023/09/06 06:32:26;;;;;;;9.18;8.32;;;19.80;74.40;;;;;;5010411;28;20091;-66
2023/09/06 06:34:54;;;;;;;8.80;7.95;;;19.80;74.30;;;;;;5007529;28;20435;-67
2023/09/06 06:37:22;;;;;;;8.35;7.65;;;19.80;74.30;;;;;;5011652;28;20033;-67
2023/09/06 06:39:48;;;;;;;9.05;8.15;;;19.90;74.50;;;;;;5007959;28;20052;-67
2023/09/06 06:42:14;;;;;;;8.35;7.57;;;20.00;74.60;;;;;;5007263;28;20026;-67
2023/09/06 06:44:48;;;;;;;8.13;7.32;;;20.00;74.50;;;;;;5006773;28;20352;-66
2023/09/06 06:47:15;;;;;;;9.35;8.50;;;20.00;74.40;;;;;;5006042;28;20449;-69
2023/09/06 06:49:41;;;;;;;8.93;8.18;;;20.10;74.50;;;;;;5013359;28;20421;-66
2023/09/06 06:52:07;;;;;;;9.77;8.70;;;20.20;74.50;;;;;;5011766;28;20034;-69
2023/09/06 06:54:34;;;;;;;9.57;8.68;;;20.30;74.50;;;;;;5002456;28;20140;-68
2023/09/06 06:57:01;;;;;;;9.55;8.52;;;20.40;74.50;;;;;;5001908;28;20049;-68
2023/09/06 06:59:27;;;;;;;9.02;7.57;;;20.50;74.60;;;;;;5006502;28;20202;-69
2023/09/06 07:01:53;;;;;;;8.30;7.50;;;20.50;74.90;;;;;;5003921;28;20132;-68
2023/09/06 07:04:20;;;;;;;8.57;7.75;;;20.60;75.30;;;;;;5000059;28;20626;-68
2023/09/06 07:06:46;;;;;;;8.80;8.02;;;20.80;76.00;;;;;;5007070;28;20029;-68
2023/09/06 07:09:12;;;;;;;9.00;8.18;;;20.90;76.40;;;;;;5005679;28;20362;-67
2023/09/06 07:11:38;;;;;;;9.90;8.02;;;20.90;76.60;;;;;;5016609;28;20545;-67
2023/09/06 07:14:04;;;;;;;9.50;8.60;;;21.10;77.20;;;;;;5009705;28;20037;-67
2023/09/06 07:16:33;;;;;;;10.77;9.32;;;21.10;77.40;;;;;;5006084;28;20049;-67
2023/09/06 07:18:59;;;;;;;12.25;9.75;;;21.30;77.80;;;;;;5003864;28;20091;-67
2023/09/06 07:21:26;;;;;;;10.77;8.90;;;21.40;78.10;;;;;;5016672;28;20551;-67
2023/09/06 07:23:52;;;;;;;10.15;9.10;;;21.40;78.00;;;;;;5007550;28;20044;-67
2023/09/06 07:26:19;;;;;;;10.65;9.55;;;21.50;78.30;;;;;;5007586;28;20033;-67
2023/09/06 07:28:47;;;;;;;12.88;9.65;;;21.60;78.50;;;;;;5003488;28;20777;-67
2023/09/06 07:31:14;;;;;;;11.23;9.98;;;21.70;79.30;;;;;;5006458;28;20073;-68
2023/09/06 07:33:41;;;;;;;10.82;9.82;;;21.80;78.90;;;;;;5001215;28;20659;-67
2023/09/06 07:36:08;;;;;;;10.98;9.23;;;21.90;78.90;;;;;;4997013;28;20037;-68
2023/09/06 07:38:34;;;;;;;10.90;9.82;;;21.90;78.80;;;;;;5007365;28;20034;-69
2023/09/06 07:41:05;;;;;;;10.40;9.40;;;22.00;79.00;;;;;;5011229;28;20553;-68
2023/09/06 07:43:33;;;;;;;11.18;9.93;;;22.20;79.20;;;;;;5002397;28;20040;-68
2023/09/06 07:46:00;;;;;;;11.93;9.68;;;22.30;79.20;;;;;;5001490;28;20053;-68
2023/09/06 07:48:31;;;;;;;11.00;9.65;;;22.40;79.10;;;;;;4990305;28;20654;-68
2023/09/06 07:50:59;;;;;;;11.93;10.85;;;22.50;79.10;;;;;;5004395;28;20128;-68
2023/09/06 07:53:26;;;;;;;12.07;10.98;;;22.60;79.00;;;;;;5004278;28;20045;-68
2023/09/06 07:55:53;;;;;;;12.68;11.40;;;22.70;78.90;;;;;;5011517;28;20107;-68
2023/09/06 07:58:19;;;;;;;12.85;11.65;;;22.80;78.80;;;;;;5000221;28;20041;-69
2023/09/06 08:00:46;;;;;;;11.82;10.48;;;22.90;78.80;;;;;;5001647;28;20045;-68
2023/09/06 08:03:14;;;;;;;12.43;11.32;;;22.90;78.60;;;;;;5010684;28;20036;-68
2023/09/06 08:05:40;;;;;;;11.50;10.50;;;23.00;78.80;;;;;;5007282;28;20605;-68
2023/09/06 08:08:08;;;;;;;12.32;10.90;;;23.00;78.90;;;;;;4994065;28;20167;-68
2023/09/06 08:10:41;;;;;;;12.68;11.40;;;23.10;79.00;;;;;;5013145;28;20042;-69
2023/09/06 08:13:08;;;;;;;12.15;10.82;;;23.20;79.10;;;;;;5012124;28;20498;-68
2023/09/06 08:15:38;;;;;;;12.55;11.13;;;23.30;79.20;;;;;;5006911;28;20084;-69
2023/09/06 08:18:05;;;;;;;12.02;10.82;;;23.30;79.10;;;;;;5008729;28;20375;-68
2023/09/06 08:20:31;;;;;;;13.38;10.77;;;23.40;79.10;;;;;;5016854;28;20072;-68
2023/09/06 08:22:58;;;;;;;12.57;11.32;;;23.40;79.00;;;;;;5017275;28;20387;-68
2023/09/06 08:25:24;;;;;;;10.50;9.60;;;23.50;79.00;;;;;;5018355;28;20958;-69
2023/09/06 08:27:51;;;;;;;12.40;11.30;;;23.60;79.00;;;;;;5018582;28;20853;-68
2023/09/06 08:30:20;;;;;;;11.85;10.65;;;23.70;79.10;;;;;;5017235;28;20049;-68
2023/09/06 08:32:49;;;;;;;12.65;11.50;;;23.70;78.90;;;;;;5003944;28;20034;-68
2023/09/06 08:35:17;;;;;;;11.80;10.80;;;23.80;78.90;;;;;;5012760;28;20127;-68
2023/09/06 08:37:47;;;;;;;11.82;10.82;;;23.80;78.70;;;;;;5010113;28;20038;-69
2023/09/06 08:40:15;;;;;;;12.00;10.80;;;23.90;78.70;;;;;;5004630;28;20465;-68
2023/09/06 08:42:44;;;;;;;12.52;11.25;;;24.00;78.70;;;;;;5009218;28;20034;-68
2023/09/06 08:45:12;;;;;;;13.35;12.15;;;24.10;78.70;;;;;;5020208;28;20292;-69
2023/09/06 08:47:39;;;;;;;12.77;11.68;;;24.10;78.40;;;;;;5018072;28;20466;-69
2023/09/06 08:50:11;;;;;;;11.85;10.85;;;24.10;78.30;;;;;;5012249;28;20072;-68
2023/09/06 08:52:42;;;;;;;13.43;12.13;;;24.30;78.40;;;;;;5010322;28;20049;-68
2023/09/06 08:55:10;;;;;;;11.77;10.55;;;24.30;78.10;;;;;;5011307;28;20290;-69
2023/09/06 08:57:41;;;;;;;14.20;11.82;;;24.40;78.10;;;;;;5012459;28;20500;-68
2023/09/06 09:00:11;;;;;;;12.75;11.55;;;24.40;77.90;;;;;;5009932;28;20053;-69
2023/09/06 09:02:42;;;;;;;11.15;10.05;;;24.50;77.80;;;;;;5011154;28;20379;-69
2023/09/06 09:05:11;;;;;;;12.45;11.27;;;24.50;77.60;;;;;;5003881;28;20161;-69
2023/09/06 09:07:38;;;;;;;13.50;12.30;;;24.60;77.60;;;;;;5000754;28;20177;-68
2023/09/06 09:10:13;;;;;;;12.63;11.32;;;24.70;77.60;;;;;;5006361;28;20563;-68
2023/09/06 09:12:41;;;;;;;13.25;11.50;;;24.70;77.30;;;;;;5015842;28;20033;-69
2023/09/06 09:15:08;;;;;;;12.88;11.73;;;24.80;77.30;;;;;;5011815;28;20516;-69
2023/09/06 09:17:39;;;;;;;11.18;10.18;;;24.80;77.10;;;;;;5008868;28;20219;-68
2023/09/06 09:20:06;;;;;;;12.63;11.43;;;24.90;77.10;;;;;;5014517;28;20052;-68
2023/09/06 09:22:37;;;;;;;14.15;12.45;;;24.90;76.90;;;;;;5009147;28;20029;-69
2023/09/06 09:25:14;;;;;;;12.73;11.13;;;25.00;76.90;;;;;;5012189;28;20091;-69
2023/09/06 09:27:44;;;;;;;12.70;11.50;;;25.10;76.70;;;;;;4984214;28;20096;-68
2023/09/06 09:30:12;;;;;;;12.93;11.73;;;25.10;76.40;;;;;;5004320;28;20034;-68
2023/09/06 09:32:42;;;;;;;12.85;11.27;;;25.20;76.30;;;;;;5009311;28;20041;-68
2023/09/06 09:35:12;;;;;;;12.15;10.95;;;25.20;76.10;;;;;;5001293;28;20037;-68
2023/09/06 09:37:41;;;;;;;12.82;11.45;;;25.30;76.00;;;;;;5014406;28;20116;-68
2023/09/06 09:40:22;;;;;;;12.07;11.05;;;25.40;75.80;;;;;;5008880;28;20529;-68
2023/09/06 09:42:52;;;;;;;10.70;9.63;;;25.40;75.60;;;;;;5010177;28;20045;-69
2023/09/06 09:45:19;;;;;;;11.88;10.75;;;25.50;75.40;;;;;;5010710;28;20045;-69
2023/09/06 09:47:46;;;;;;;12.38;11.25;;;25.50;75.20;;;;;;5005932;28;20041;-68
2023/09/06 09:50:13;;;;;;;11.77;10.57;;;25.60;75.20;;;;;;5010493;28;20033;-68
2023/09/06 09:52:44;;;;;;;13.23;11.48;;;25.60;75.00;;;;;;5013739;28;20119;-68
2023/09/06 09:55:15;;;;;;;12.40;10.98;;;25.70;75.00;;;;;;5010022;28;20068;-67
2023/09/06 09:57:46;;;;;;;11.95;10.82;;;25.70;74.80;;;;;;5007478;28;20084;-68
2023/09/06 10:00:17;;;;;;;13.15;11.63;;;25.80;74.70;;;;;;5000886;28;20037;-68
2023/09/06 10:02:45;;;;;;;14.02;11.98;;;25.80;74.40;;;;;;5011953;28;20091;-67
2023/09/06 10:05:19;;;;;;;12.30;11.13;;;25.90;74.20;;;;;;5004882;28;20034;-68
2023/09/06 10:07:47;;;;;;;12.90;11.60;;;25.90;73.90;;;;;;4990238;28;20534;-68
2023/09/06 10:10:13;;;;;;;12.95;11.63;;;26.00;73.70;;;;;;5004571;28;20532;-68
2023/09/06 10:12:44;;;;;;;13.07;10.48;;;26.00;74.00;;;;;;5015320;28;20131;-68
2023/09/06 10:15:14;;;;;;;11.57;10.40;;;26.10;73.50;;;;;;5012808;28;20075;-68
2023/09/06 10:17:41;;;;;;;10.93;9.88;;;26.20;73.40;;;;;;5004407;28;20033;-68
2023/09/06 10:20:12;;;;;;;11.25;10.18;;;26.20;73.30;;;;;;4997825;28;20102;-68
2023/09/06 10:22:43;;;;;;;11.88;9.80;;;26.30;73.10;;;;;;5004182;28;20530;-68
2023/09/06 10:25:11;;;;;;;11.48;10.35;;;26.40;72.90;;;;;;5010905;28;20439;-67
2023/09/06 10:27:47;;;;;;;14.15;10.50;;;26.50;72.70;;;;;;5008695;28;20090;-68
2023/09/06 10:30:17;;;;;;;11.90;9.35;;;26.60;72.30;;;;;;5004795;28;20050;-68
2023/09/06 10:32:47;;;;;;;11.23;9.75;;;26.80;72.10;;;;;;4989978;28;20501;-68
2023/09/06 10:35:24;;;;;;;10.93;9.57;;;26.90;71.70;;;;;;5007158;28;20060;-68
2023/09/06 10:38:04;;;;;;;11.18;9.85;;;27.00;71.30;;;;;;5006221;28;20497;-68
2023/09/06 10:40:51;;;;;;;10.80;9.60;;;27.10;71.00;;;;;;5010834;28;20050;-68
2023/09/06 10:43:26;;;;;;;10.65;9.50;;;27.30;70.80;;;;;;5009104;28;20040;-68
2023/09/06 10:45:58;;;;;;;9.55;8.65;;;27.30;70.50;;;;;;5009457;28;20347;-68
2023/09/06 10:48:25;;;;;;;10.55;9.38;;;27.40;70.30;;;;;;5016496;28;20511;-68
2023/09/06 10:51:09;;;;;;;9.27;8.43;;;27.50;70.10;;;;;;5009304;28;20508;-68
2023/09/06 10:53:36;;;;;;;10.23;9.23;;;27.60;69.70;;;;;;5007470;28;20502;-68
2023/09/06 10:56:05;;;;;;;10.98;9.13;;;27.80;69.60;;;;;;4998208;28;20120;-68
2023/09/06 10:58:36;;;;;;;10.98;8.02;;;27.90;69.40;;;;;;5003001;28;20041;-69
2023/09/06 11:01:17;;;;;;;11.02;7.78;;;28.00;69.20;;;;;;5012368;28;20749;-68
2023/09/06 11:03:50;;;;;;;10.95;9.90;;;28.10;69.00;;;;;;5008445;28;20080;-69
2023/09/06 11:06:18;;;;;;;10.32;8.32;;;28.20;68.80;;;;;;5015539;28;20030;-69
2023/09/06 11:08:47;;;;;;;8.25;7.55;;;28.30;69.20;;;;;;5007028;28;20050;-68
2023/09/06 11:11:14;;;;;;;9.93;7.65;;;28.40;68.40;;;;;;5005183;28;20041;-68
2023/09/06 11:13:44;;;;;;;9.38;7.78;;;28.50;68.20;;;;;;4999256;28;20041;-68
2023/09/06 11:16:15;;;;;;;10.52;8.73;;;28.60;68.00;;;;;;5010410;28;20375;-69
2023/09/06 11:18:47;;;;;;;10.93;8.15;;;28.70;67.80;;;;;;5008229;28;20130;-69
2023/09/06 11:21:21;;;;;;;8.63;7.72;;;28.70;67.50;;;;;;5008425;28;20334;-68
2023/09/06 11:23:48;;;;;;;8.65;7.82;;;28.80;67.40;;;;;;5019476;28;20097;-68
2023/09/06 11:26:15;;;;;;;12.02;10.15;;;28.80;67.30;;;;;;5005940;28;20037;-68
2023/09/06 11:28:43;;;;;;;11.93;9.10;;;28.90;67.30;;;;;;5012321;28;20057;-68
2023/09/06 11:31:25;;;;;;;8.73;7.38;;;28.90;67.20;;;;;;5001550;28;20204;-68
2023/09/06 11:33:55;;;;;;;12.15;8.85;;;28.90;67.10;;;;;;4990605;28;20123;-68
2023/09/06 11:36:30;;;;;;;11.02;7.40;;;28.90;67.20;;;;;;5004974;28;20034;-68
2023/09/06 11:39:34;;;;;;;11.57;7.70;;;28.90;67.20;;;;;;4999312;28;20037;-68
2023/09/06 11:41:51;;;;;;;8.85;7.40;;;28.90;67.20;;;;;;5009113;28;20386;-68
2023/09/06 11:44:19;;;;;;;8.75;7.85;;;28.90;67.30;;;;;;5008855;28;20060;-68
2023/09/06 11:46:48;;;;;;;10.48;8.20;;;29.00;67.20;;;;;;5010772;28;20038;-68
2023/09/06 11:49:17;;;;;;;12.90;8.98;;;28.90;67.10;;;;;;5015412;28;20123;-69
2023/09/06 11:51:46;;;;;;;8.05;7.07;;;28.90;67.00;;;;;;5017437;28;20408;-68
2023/09/06 11:54:12;;;;;;;10.80;7.72;;;28.90;66.90;;;;;;5014037;28;20925;-69
2023/09/06 11:56:42;;;;;;;10.18;7.97;;;28.90;66.90;;;;;;5008754;28;20021;-68
2023/09/06 11:59:12;;;;;;;9.02;7.43;;;28.90;66.80;;;;;;5001280;28;20583;-68
2023/09/06 12:01:40;;;;;;;9.38;7.57;;;28.90;66.90;;;;;;5020324;28;20269;-68
2023/09/06 12:04:16;;;;;;;8.05;6.80;;;28.90;66.90;;;;;;5017636;28;20033;-68
2023/09/06 12:06:43;;;;;;;9.15;7.72;;;28.90;66.80;;;;;;5008283;28;20505;-68
2023/09/06 12:09:15;;;;;;;8.90;7.53;;;28.90;66.90;;;;;;5016167;28;20404;-68
2023/09/06 12:11:42;;;;;;;7.55;6.75;;;28.90;66.90;;;;;;5006892;28;20057;-68
2023/09/06 12:14:10;;;;;;;7.70;6.88;;;28.90;66.90;;;;;;5011407;28;20068;-68
2023/09/06 12:16:36;;;;;;;8.50;7.60;;;28.90;66.90;;;;;;5019136;28;20024;-68
2023/09/06 12:19:03;;;;;;;9.60;7.30;;;29.00;66.90;;;;;;5009196;28;20060;-69
2023/09/06 12:21:29;;;;;;;7.82;6.72;;;29.00;66.90;;;;;;5001699;28;20518;-68
2023/09/06 12:23:57;;;;;;;7.03;6.43;;;29.00;66.80;;;;;;5011653;28;20029;-68
2023/09/06 12:26:24;;;;;;;7.35;6.65;;;29.10;66.90;;;;;;5009913;28;20382;-68
2023/09/06 12:28:50;;;;;;;8.23;7.43;;;29.10;66.80;;;;;;5010707;28;20030;-69
2023/09/06 12:31:16;;;;;;;8.05;7.03;;;29.10;66.70;;;;;;5011385;28;20040;-68
2023/09/06 12:33:45;;;;;;;8.13;6.47;;;29.10;66.60;;;;;;5009656;28;20460;-68
2023/09/06 12:36:13;;;;;;;9.18;6.80;;;29.10;66.50;;;;;;5006274;28;20026;-68
2023/09/06 12:38:42;;;;;;;9.93;6.88;;;29.20;66.40;;;;;;5013794;28;20136;-68
2023/09/06 12:41:09;;;;;;;7.95;6.68;;;29.20;66.30;;;;;;5008121;28;20192;-68
2023/09/06 12:43:36;;;;;;;7.93;7.10;;;29.30;66.20;;;;;;5004368;28;20383;-68
2023/09/06 12:46:06;;;;;;;7.35;6.65;;;29.40;66.20;;;;;;5004603;28;20220;-68
2023/09/06 12:48:33;;;;;;;9.10;7.50;;;29.40;66.00;;;;;;5008361;28;20030;-69